Terminal Aerodrome Forecast
Issued by NWS Paducah, KY

Home | Current Version | Previous Version | Text Only | Print | Product List | Glossary On
Versions: 1 2 3 4 5 6 7 8 9 10 11 12 13 14 15 16 17 18 19
876
FTUS43 KPAH 302339
TAFEVV
TAF
KEVV 302339Z 0100/0124 17007KT P6SM VCSH FEW040 BKN100
     FM010500 00000KT 5SM BR SCT040
      TEMPO 0109/0113 1SM BR SCT005
     FM011500 24004KT 6SM BR BKN020
     FM011900 26007KT P6SM BKN035=

USA.gov is the U.S. government's official web portal to all federal, state and local government web resources and services.